createdAt,value
2023-04-23T00:00:57.372Z,76.5
2023-04-23T00:01:57.350Z,76.5
2023-04-23T00:02:57.505Z,76.5
2023-04-23T00:03:57.566Z,76.5
2023-04-23T00:04:57.476Z,76.5
2023-04-23T00:05:57.409Z,76.5
2023-04-23T00:06:57.402Z,76.5
2023-04-23T00:07:57.366Z,76.5
2023-04-23T00:08:57.402Z,76.5
2023-04-23T00:09:57.369Z,76.5
2023-04-23T00:10:57.400Z,76.5
2023-04-23T00:11:57.384Z,76.5
2023-04-23T00:12:59.154Z,76.7
2023-04-23T00:13:57.372Z,76.7
2023-04-23T00:14:57.397Z,76.7
2023-04-23T00:15:57.428Z,76.7
2023-04-23T00:16:57.404Z,76.7
2023-04-23T00:17:57.424Z,76.7
2023-04-23T00:18:57.407Z,76.7
2023-04-23T00:19:57.428Z,76.7
2023-04-23T00:20:57.436Z,76.7
2023-04-23T00:21:57.381Z,76.7
2023-04-23T00:22:57.388Z,76.7
2023-04-23T00:23:57.378Z,76.7
2023-04-23T00:24:57.420Z,76.7
2023-04-23T00:25:57.452Z,76.7
2023-04-23T00:26:57.380Z,76.7
2023-04-23T00:27:57.431Z,77.7
2023-04-23T00:28:57.406Z,77.7
2023-04-23T00:29:57.395Z,77.7
2023-04-23T00:30:57.421Z,77.7
2023-04-23T00:31:57.472Z,77.7
2023-04-23T00:32:57.411Z,77.7
2023-04-23T00:33:57.410Z,77.7
2023-04-23T00:34:57.384Z,77.7
2023-04-23T00:35:57.405Z,77.7
2023-04-23T00:36:57.402Z,77.7
2023-04-23T00:37:57.434Z,77.7
2023-04-23T00:38:57.388Z,77.7
2023-04-23T00:39:57.396Z,77.7
2023-04-23T00:40:57.399Z,77.7
2023-04-23T00:41:57.427Z,77.7
2023-04-23T00:42:57.386Z,77.7
2023-04-23T00:43:57.435Z,77.7
2023-04-23T00:44:57.388Z,77.7
2023-04-23T00:45:57.438Z,77.7
2023-04-23T00:46:57.412Z,77.7
2023-04-23T00:47:57.475Z,77.7
2023-04-23T00:48:57.389Z,77.7
2023-04-23T00:49:57.407Z,77.7
2023-04-23T00:50:57.370Z,77.9
2023-04-23T00:51:57.421Z,77.9
2023-04-23T00:52:57.409Z,77.9
2023-04-23T00:53:57.430Z,77.9
2023-04-23T00:54:57.468Z,77.9
2023-04-23T00:55:57.399Z,77.9
2023-04-23T00:56:57.395Z,77.9
2023-04-23T00:57:57.415Z,77.9
2023-04-23T00:58:57.440Z,77.9
2023-04-23T00:59:57.399Z,77.9
2023-04-23T01:00:57.421Z,77.9
2023-04-23T01:01:57.399Z,77.9
2023-04-23T01:02:57.554Z,77.9
2023-04-23T01:03:57.575Z,77.9
2023-04-23T01:04:57.413Z,77.9
2023-04-23T01:05:57.468Z,77.9
2023-04-23T01:06:57.418Z,77.9
2023-04-23T01:07:57.440Z,77.9
2023-04-23T01:08:57.400Z,77.9
2023-04-23T01:09:57.418Z,77.9
2023-04-23T01:10:57.447Z,77.9
2023-04-23T01:11:57.445Z,77.9
2023-04-23T01:12:57.458Z,77.9
2023-04-23T01:13:57.468Z,77.9
2023-04-23T01:14:57.408Z,77.9
2023-04-23T01:15:57.480Z,77.9
2023-04-23T01:16:57.493Z,77.9
2023-04-23T01:17:57.499Z,77.9
2023-04-23T01:18:57.425Z,77.9
2023-04-23T01:19:57.482Z,77.9
2023-04-23T01:20:57.433Z,77.9
2023-04-23T01:21:57.454Z,77.9
2023-04-23T01:22:57.458Z,77.9
2023-04-23T01:23:57.460Z,77.9
2023-04-23T01:24:57.461Z,77.9
2023-04-23T01:25:57.475Z,79.1
2023-04-23T01:26:57.464Z,79.1
2023-04-23T01:27:57.529Z,79.1
2023-04-23T01:28:57.480Z,79.1
2023-04-23T01:29:57.428Z,79.1
2023-04-23T01:30:57.458Z,79.1
2023-04-23T01:31:57.440Z,79.1
2023-04-23T01:32:57.518Z,79.1
2023-04-23T01:33:57.491Z,79.1
2023-04-23T01:34:57.479Z,79.1
2023-04-23T01:35:57.494Z,79.1
2023-04-23T01:36:57.493Z,79.1
2023-04-23T01:37:57.508Z,79.1
2023-04-23T01:38:57.492Z,79.1
2023-04-23T01:39:57.546Z,79.1
2023-04-23T01:40:57.530Z,79.1
2023-04-23T01:41:57.533Z,79.1
2023-04-23T01:42:58.566Z,79.1
2023-04-23T01:43:57.527Z,79.1
2023-04-23T01:44:57.561Z,79.1
2023-04-23T01:45:57.571Z,79.1
2023-04-23T01:46:57.531Z,79.1
2023-04-23T01:47:57.541Z,79.1
2023-04-23T01:48:57.531Z,79.1
2023-04-23T01:49:57.482Z,79.1
2023-04-23T01:50:57.533Z,79.1
2023-04-23T01:51:57.519Z,79.1
2023-04-23T01:52:57.532Z,79.1
2023-04-23T01:53:57.524Z,79.8
2023-04-23T01:54:57.527Z,79.8
2023-04-23T01:55:57.575Z,79.8
2023-04-23T01:56:57.546Z,79.8
2023-04-23T01:57:57.528Z,79.8
2023-04-23T01:58:57.527Z,79.8
2023-04-23T01:59:57.516Z,79.8
2023-04-23T02:00:57.525Z,79.8
2023-04-23T02:01:57.635Z,79.8
2023-04-23T02:02:57.604Z,79.8
2023-04-23T02:03:57.643Z,79.8
2023-04-23T02:04:57.549Z,79.8
2023-04-23T02:05:57.556Z,79.8
2023-04-23T02:06:57.600Z,79.8
2023-04-23T02:07:57.565Z,79.8
2023-04-23T02:08:58.550Z,79.8
2023-04-23T02:09:57.596Z,79.8
2023-04-23T02:10:57.605Z,79.8
2023-04-23T02:11:57.563Z,79.8
2023-04-23T02:12:57.587Z,79.8
2023-04-23T02:13:57.587Z,79.8
2023-04-23T02:14:57.571Z,79.8
2023-04-23T02:15:57.593Z,79.8
2023-04-23T02:16:57.618Z,79.8
2023-04-23T02:17:57.659Z,79.8
2023-04-23T02:18:57.581Z,79.8
2023-04-23T02:19:57.585Z,78.8
2023-04-23T02:20:57.591Z,78.8
2023-04-23T02:21:57.570Z,78.8
2023-04-23T02:22:57.629Z,78.8
2023-04-23T02:23:57.610Z,79.7
2023-04-23T02:24:57.586Z,79.7
2023-04-23T02:25:57.594Z,79.7
2023-04-23T02:26:57.660Z,79.7
2023-04-23T02:27:57.641Z,79.7
2023-04-23T02:28:57.629Z,79.7
2023-04-23T02:29:57.654Z,79.7
2023-04-23T02:30:57.592Z,79.7
2023-04-23T02:31:57.801Z,79.7
2023-04-23T02:32:57.630Z,79.7
2023-04-23T02:33:57.621Z,79.7
2023-04-23T02:34:57.599Z,79.7
2023-04-23T02:35:57.660Z,79.7
2023-04-23T02:36:57.628Z,79.7
2023-04-23T02:37:57.620Z,79.7
2023-04-23T02:38:57.611Z,79.7
2023-04-23T02:39:57.631Z,79.7
2023-04-23T02:40:57.639Z,79.7
2023-04-23T02:41:57.574Z,79.7
2023-04-23T02:42:57.575Z,79.7
2023-04-23T02:43:57.630Z,79.7
2023-04-23T02:44:57.616Z,79.7
2023-04-23T02:45:57.628Z,79.7
2023-04-23T02:46:57.780Z,79.7
2023-04-23T02:47:57.645Z,79.7
2023-04-23T02:48:57.626Z,79.7
2023-04-23T02:49:57.661Z,79.7
2023-04-23T02:50:57.630Z,79.7
2023-04-23T02:51:57.638Z,79.7
2023-04-23T02:52:57.638Z,79.7
2023-04-23T02:53:57.643Z,79.7
2023-04-23T02:54:57.662Z,79.7
2023-04-23T02:55:57.679Z,79.7
2023-04-23T02:56:57.681Z,79.7
2023-04-23T02:57:57.651Z,79.7
2023-04-23T02:58:57.675Z,79.7
2023-04-23T02:59:57.662Z,79.7
2023-04-23T03:00:57.794Z,79.7
2023-04-23T03:01:57.709Z,79.7
2023-04-23T03:02:57.795Z,79.7
2023-04-23T03:03:57.777Z,79.7
2023-04-23T03:04:57.652Z,79.7
2023-04-23T03:05:57.673Z,79.7
2023-04-23T03:06:57.678Z,79.7
2023-04-23T03:07:57.661Z,79.7
2023-04-23T03:08:57.675Z,79.7
2023-04-23T03:09:57.660Z,79.7
2023-04-23T03:10:57.658Z,79.7
2023-04-23T03:11:57.692Z,79.7
2023-04-23T03:12:57.653Z,79.7
2023-04-23T03:13:57.656Z,79.7
2023-04-23T03:14:57.658Z,79.7
2023-04-23T03:15:57.673Z,79.7
2023-04-23T03:16:57.742Z,79.7
2023-04-23T03:17:57.781Z,79.7
2023-04-23T03:18:57.659Z,80.7
2023-04-23T03:19:57.674Z,80.7
2023-04-23T03:20:57.699Z,80.7
2023-04-23T03:21:57.720Z,80.7
2023-04-23T03:22:57.686Z,80.7
2023-04-23T03:23:57.678Z,81
2023-04-23T03:24:57.713Z,81
2023-04-23T03:25:57.702Z,81
2023-04-23T03:26:57.698Z,81
2023-04-23T03:27:57.731Z,81
2023-04-23T03:28:57.709Z,81
2023-04-23T03:29:57.707Z,81
2023-04-23T03:30:57.739Z,81
2023-04-23T03:31:57.722Z,81
2023-04-23T03:32:57.754Z,81
2023-04-23T03:33:57.751Z,81
2023-04-23T03:34:57.701Z,81
2023-04-23T03:35:57.714Z,81
2023-04-23T03:36:57.737Z,81
2023-04-23T03:37:57.737Z,81
2023-04-23T03:38:57.725Z,81
2023-04-23T03:39:57.768Z,81
2023-04-23T03:40:57.761Z,81
2023-04-23T03:41:57.711Z,81
2023-04-23T03:42:57.772Z,81
2023-04-23T03:43:57.741Z,81
2023-04-23T03:44:57.800Z,81
2023-04-23T03:45:57.785Z,81
2023-04-23T03:46:57.767Z,81
2023-04-23T03:47:57.806Z,81
2023-04-23T03:48:57.758Z,81
2023-04-23T03:49:57.754Z,81
2023-04-23T03:50:57.818Z,81
2023-04-23T03:51:57.740Z,81
2023-04-23T03:52:57.770Z,81
2023-04-23T03:53:57.781Z,81
2023-04-23T03:54:57.794Z,81
2023-04-23T03:55:57.856Z,81
2023-04-23T03:56:57.804Z,81
2023-04-23T03:57:58.013Z,81
2023-04-23T03:58:57.839Z,81
2023-04-23T03:59:57.809Z,81
2023-04-23T04:00:57.798Z,81
2023-04-23T04:01:57.826Z,81
2023-04-23T04:02:57.914Z,81
2023-04-23T04:03:58.174Z,81
2023-04-23T04:04:58.139Z,81
2023-04-23T04:05:57.866Z,81
2023-04-23T04:06:57.875Z,81
2023-04-23T04:07:57.856Z,81
2023-04-23T04:08:57.840Z,81
2023-04-23T04:09:57.851Z,82.1
2023-04-23T04:10:57.884Z,82.1
2023-04-23T04:11:57.868Z,82.1
2023-04-23T04:12:57.891Z,82.1
2023-04-23T04:13:57.853Z,82.1
2023-04-23T04:14:57.849Z,82.1
2023-04-23T04:15:57.911Z,82.1
2023-04-23T04:16:57.857Z,82.1
2023-04-23T04:17:57.887Z,82.1
2023-04-23T04:18:57.872Z,82.1
2023-04-23T04:19:57.891Z,82.1
2023-04-23T04:20:57.899Z,82.1
2023-04-23T04:21:57.880Z,82.1
2023-04-23T04:22:57.868Z,82.1
2023-04-23T04:23:57.985Z,82.1
2023-04-23T04:24:57.870Z,82.1
2023-04-23T04:25:57.887Z,82.1
2023-04-23T04:26:57.904Z,82.1
2023-04-23T04:27:57.939Z,82.1
2023-04-23T04:28:57.922Z,82.1
2023-04-23T04:29:57.914Z,82.1
2023-04-23T04:30:57.859Z,82.1
2023-04-23T04:31:57.906Z,82.1
2023-04-23T04:32:57.943Z,82.1
2023-04-23T04:33:57.916Z,82.1
2023-04-23T04:34:57.931Z,82.1
2023-04-23T04:35:57.851Z,82.1
2023-04-23T04:36:57.879Z,82.1
2023-04-23T04:37:57.902Z,82.1
2023-04-23T04:38:57.900Z,82.1
2023-04-23T04:39:57.885Z,82.1
2023-04-23T04:40:57.909Z,82.1
2023-04-23T04:41:57.877Z,82
2023-04-23T04:42:57.901Z,82
2023-04-23T04:43:57.898Z,82
2023-04-23T04:44:57.892Z,82
2023-04-23T04:45:57.878Z,82
2023-04-23T04:46:57.959Z,82
2023-04-23T04:47:57.952Z,82
2023-04-23T04:48:57.906Z,82
2023-04-23T04:49:58.003Z,82
2023-04-23T04:50:57.880Z,82
2023-04-23T04:51:57.879Z,82
2023-04-23T04:52:57.919Z,81.8
2023-04-23T04:53:57.918Z,81.8
2023-04-23T04:54:57.919Z,81.8
2023-04-23T04:55:57.906Z,81.8
2023-04-23T04:56:57.935Z,81.8
2023-04-23T04:57:57.901Z,81.8
2023-04-23T04:58:57.916Z,81.8
2023-04-23T04:59:57.943Z,81.8
2023-04-23T05:00:57.938Z,80.5
2023-04-23T05:01:57.923Z,80.5
2023-04-23T05:02:58.038Z,80.5
2023-04-23T05:03:58.161Z,80.5
2023-04-23T05:04:57.924Z,80.5
2023-04-23T05:05:57.983Z,80
2023-04-23T05:06:57.939Z,78.6
2023-04-23T05:07:57.940Z,78.6
2023-04-23T05:08:57.925Z,78.6
2023-04-23T05:09:57.978Z,78.6
2023-04-23T05:10:57.938Z,78.7
2023-04-23T05:11:57.989Z,78.7
2023-04-23T05:12:57.931Z,78.7
2023-04-23T05:13:57.975Z,78.7
2023-04-23T05:14:57.958Z,78.7
2023-04-23T05:15:57.966Z,77.6
2023-04-23T05:16:58.059Z,77.6
2023-04-23T05:17:57.999Z,77.6
2023-04-23T05:18:57.966Z,77.6
2023-04-23T05:19:57.968Z,76.3
2023-04-23T05:20:58.115Z,76.3
2023-04-23T05:21:57.983Z,76.3
2023-04-23T05:22:57.947Z,76.3
2023-04-23T05:23:57.945Z,76.7
2023-04-23T05:24:57.980Z,76.7
2023-04-23T05:25:57.970Z,76.7
2023-04-23T05:26:57.986Z,76.7
2023-04-23T05:27:57.996Z,76.7
2023-04-23T05:28:58.025Z,76.7
2023-04-23T05:29:57.989Z,76
2023-04-23T05:30:57.950Z,76
2023-04-23T05:31:58.038Z,76
2023-04-23T05:32:58.093Z,76
2023-04-23T05:33:58.006Z,76.7
2023-04-23T05:34:58.010Z,76.7
2023-04-23T05:35:57.990Z,76.7
2023-04-23T05:36:57.986Z,76.7
2023-04-23T05:37:58.046Z,76.7
2023-04-23T05:38:58.029Z,76.4
2023-04-23T05:39:57.991Z,76.4
2023-04-23T05:40:57.985Z,76.4
2023-04-23T05:41:58.051Z,76.4
2023-04-23T05:42:58.031Z,76.2
2023-04-23T05:43:58.015Z,76.2
2023-04-23T05:44:58.016Z,76.2
2023-04-23T05:45:58.104Z,76.2
2023-04-23T05:46:58.027Z,76.2
2023-04-23T05:47:58.091Z,76.2
2023-04-23T05:48:58.045Z,75.6
2023-04-23T05:49:58.081Z,75.6
2023-04-23T05:50:58.037Z,75.6
2023-04-23T05:51:58.029Z,75.6
2023-04-23T05:52:58.059Z,75.6
2023-04-23T05:53:58.033Z,75.6
2023-04-23T05:54:58.026Z,75.6
2023-04-23T05:55:58.086Z,74.7
2023-04-23T05:56:58.063Z,74.7
2023-04-23T05:57:58.005Z,74.7
2023-04-23T05:58:58.023Z,73.8
2023-04-23T05:59:58.086Z,73.8
2023-04-23T06:00:58.050Z,73.8
2023-04-23T06:01:58.041Z,73.8
2023-04-23T06:02:58.231Z,73.8
2023-04-23T06:03:58.208Z,72.8
2023-04-23T06:04:58.361Z,72.8
2023-04-23T06:05:58.104Z,72.8
2023-04-23T06:06:58.123Z,72.8
2023-04-23T06:07:58.074Z,72.8
2023-04-23T06:08:58.080Z,72.8
2023-04-23T06:09:58.073Z,72.8
2023-04-23T06:10:58.086Z,72.8
2023-04-23T06:11:58.042Z,72.8
2023-04-23T06:12:58.098Z,72.8
2023-04-23T06:13:58.036Z,72.8
2023-04-23T06:14:58.056Z,73
2023-04-23T06:15:58.141Z,73
2023-04-23T06:16:58.085Z,73
2023-04-23T06:17:58.125Z,73
2023-04-23T06:18:58.081Z,73
2023-04-23T06:19:58.128Z,73
2023-04-23T06:20:58.105Z,73
2023-04-23T06:21:58.083Z,73
2023-04-23T06:22:58.114Z,73
2023-04-23T06:23:58.154Z,73
2023-04-23T06:24:58.083Z,73
2023-04-23T06:25:58.092Z,71.2
2023-04-23T06:26:58.079Z,71.2
2023-04-23T06:27:58.084Z,71.2
2023-04-23T06:28:58.110Z,71.2
2023-04-23T06:29:58.088Z,71.2
2023-04-23T06:30:58.102Z,71.2
2023-04-23T06:31:58.090Z,71.2
2023-04-23T06:32:58.117Z,71.2
2023-04-23T06:33:58.109Z,71.2
2023-04-23T06:35:02.060Z,71.2
2023-04-23T06:35:58.111Z,71.2
2023-04-23T06:36:58.144Z,69.7
2023-04-23T06:37:58.106Z,69.7
2023-04-23T06:38:58.106Z,69.7
2023-04-23T06:39:58.138Z,69.7
2023-04-23T06:40:58.134Z,69.7
2023-04-23T06:41:58.098Z,69.7
2023-04-23T06:42:58.114Z,69.7
2023-04-23T06:43:58.088Z,69.7
2023-04-23T06:44:58.092Z,69.7
2023-04-23T06:45:58.138Z,69.7
2023-04-23T06:46:58.207Z,69.7
2023-04-23T06:47:58.185Z,69.7
2023-04-23T06:48:58.110Z,67.9
2023-04-23T06:49:58.128Z,67.9
2023-04-23T06:50:58.120Z,67.9
2023-04-23T06:51:58.200Z,67.9
2023-04-23T06:52:58.105Z,67.9
2023-04-23T06:53:58.102Z,67.9
2023-04-23T06:54:58.096Z,67.9
2023-04-23T06:55:58.104Z,67.9
2023-04-23T06:56:58.159Z,67.9
2023-04-23T06:57:58.137Z,67.9
2023-04-23T06:58:58.259Z,68.9
2023-04-23T06:59:58.140Z,68.9
2023-04-23T07:00:58.301Z,68.3
2023-04-23T07:01:58.125Z,68.3
2023-04-23T07:02:58.254Z,68.3
2023-04-23T07:03:58.132Z,68.3
2023-04-23T07:04:58.138Z,68.3
2023-04-23T07:05:58.189Z,68.3
2023-04-23T07:06:58.209Z,68.3
2023-04-23T07:07:58.198Z,68.3
2023-04-23T07:08:58.166Z,68.3
2023-04-23T07:09:58.162Z,68.3
2023-04-23T07:10:58.192Z,68.3
2023-04-23T07:11:58.145Z,68.3
2023-04-23T07:12:58.190Z,68.3
2023-04-23T07:13:58.180Z,68.3
2023-04-23T07:14:58.166Z,68.3
2023-04-23T07:15:58.185Z,68.3
2023-04-23T07:16:58.316Z,66.9
2023-04-23T07:17:58.274Z,66.9
2023-04-23T07:18:58.228Z,66.9
2023-04-23T07:19:58.195Z,66.9
2023-04-23T07:20:58.173Z,66.9
2023-04-23T07:21:58.189Z,66.9
2023-04-23T07:22:58.281Z,66.9
2023-04-23T07:23:58.264Z,66.9
2023-04-23T07:24:58.212Z,66.9
2023-04-23T07:25:58.199Z,68.2
2023-04-23T07:26:58.187Z,68.2
2023-04-23T07:27:58.204Z,68.2
2023-04-23T07:28:58.206Z,68.2
2023-04-23T07:29:58.247Z,68.2
2023-04-23T07:30:58.238Z,68.2
2023-04-23T07:31:58.218Z,68.2
2023-04-23T07:32:58.235Z,68.2
2023-04-23T07:33:58.285Z,68.2
2023-04-23T07:34:58.251Z,68.2
2023-04-23T07:35:58.230Z,68.2
2023-04-23T07:36:58.197Z,68.2
2023-04-23T07:37:58.224Z,68.2
2023-04-23T07:38:58.216Z,65.5
2023-04-23T07:39:58.322Z,65.5
2023-04-23T07:40:58.177Z,65.5
2023-04-23T07:41:58.232Z,65.5
2023-04-23T07:42:58.216Z,65.5
2023-04-23T07:43:58.218Z,65.5
2023-04-23T07:44:58.219Z,65.5
2023-04-23T07:45:58.286Z,65.5
2023-04-23T07:46:58.210Z,65.5
2023-04-23T07:47:58.272Z,65.5
2023-04-23T07:48:58.229Z,65.5
2023-04-23T07:49:58.282Z,65.5
2023-04-23T07:50:58.286Z,65.5
2023-04-23T07:51:58.248Z,62.9
2023-04-23T07:52:58.283Z,62.9
2023-04-23T07:53:58.265Z,62.9
2023-04-23T07:54:58.290Z,62.9
2023-04-23T07:55:58.242Z,62.9
2023-04-23T07:56:58.234Z,62.9
2023-04-23T07:57:58.247Z,62.9
2023-04-23T07:58:58.287Z,62.9
2023-04-23T07:59:58.257Z,62.9
2023-04-23T08:00:58.336Z,62.9
2023-04-23T08:01:58.230Z,62.9
2023-04-23T08:02:58.352Z,62.9
2023-04-23T08:03:59.580Z,62.9
2023-04-23T08:04:58.468Z,63.3
2023-04-23T08:05:58.238Z,63.3
2023-04-23T08:06:58.246Z,63.3
2023-04-23T08:07:58.255Z,63.3
2023-04-23T08:08:58.333Z,63.3
2023-04-23T08:09:58.261Z,63.3
2023-04-23T08:10:58.252Z,63.3
2023-04-23T08:11:58.278Z,63.3
2023-04-23T08:12:58.244Z,63.3
2023-04-23T08:13:58.273Z,63.3
2023-04-23T08:14:58.350Z,63.3
2023-04-23T08:15:58.288Z,63.3
2023-04-23T08:16:58.250Z,63.3
2023-04-23T08:17:58.310Z,61.3
2023-04-23T08:19:58.240Z,61.3
2023-04-23T08:20:58.267Z,61.3
2023-04-23T08:21:58.268Z,61.3
2023-04-23T08:22:58.274Z,61.3
2023-04-23T08:23:58.306Z,61.3
2023-04-23T08:24:58.268Z,61.3
2023-04-23T08:25:59.321Z,61.3
2023-04-23T08:26:58.267Z,61.3
2023-04-23T08:27:58.265Z,61.3
2023-04-23T08:28:58.223Z,61.3
2023-04-23T08:29:58.259Z,61.3
2023-04-23T08:30:58.288Z,61.3
2023-04-23T08:31:58.336Z,61.3
2023-04-23T08:32:58.267Z,61.3
2023-04-23T08:33:58.241Z,62
2023-04-23T08:34:58.274Z,62
2023-04-23T08:35:58.310Z,62
2023-04-23T08:36:58.265Z,62
2023-04-23T08:37:58.269Z,62
2023-04-23T08:38:58.244Z,62
2023-04-23T08:39:58.310Z,62
2023-04-23T08:40:58.267Z,62
2023-04-23T08:41:58.259Z,62
2023-04-23T08:42:58.303Z,62
2023-04-23T08:43:58.274Z,62
2023-04-23T08:44:58.323Z,62
2023-04-23T08:45:58.268Z,62
2023-04-23T08:46:58.385Z,62
2023-04-23T08:48:01.016Z,62
2023-04-23T08:48:58.344Z,62
2023-04-23T08:49:58.281Z,62
2023-04-23T08:50:58.294Z,58.7
2023-04-23T08:51:58.255Z,58.7
2023-04-23T08:52:58.315Z,58.7
2023-04-23T08:53:58.263Z,58.7
2023-04-23T08:54:58.304Z,58.7
2023-04-23T08:55:58.330Z,58.7
2023-04-23T08:56:58.464Z,57.1
2023-04-23T08:57:58.278Z,57.1
2023-04-23T08:58:58.315Z,57.1
2023-04-23T08:59:58.279Z,57.1
2023-04-23T09:00:58.309Z,57.1
2023-04-23T09:01:58.332Z,57.1
2023-04-23T09:02:58.326Z,57.1
2023-04-23T09:03:58.363Z,57.1
2023-04-23T09:04:58.277Z,57.1
2023-04-23T09:05:58.309Z,57.1
2023-04-23T09:06:58.319Z,57.1
2023-04-23T09:07:58.344Z,57.1
2023-04-23T09:08:58.299Z,57.1
2023-04-23T09:09:58.364Z,57.1
2023-04-23T09:10:58.310Z,57.1
2023-04-23T09:11:58.318Z,57.1
2023-04-23T09:12:58.272Z,57.1
2023-04-23T09:13:58.306Z,57.1
2023-04-23T09:14:58.326Z,57.1
2023-04-23T09:15:58.305Z,57.1
2023-04-23T09:16:58.423Z,57.1
2023-04-23T09:17:58.364Z,57.1
2023-04-23T09:18:58.306Z,57.1
2023-04-23T09:19:58.345Z,57.1
2023-04-23T09:20:58.376Z,57.1
2023-04-23T09:21:58.280Z,57.1
2023-04-23T09:22:58.324Z,57.1
2023-04-23T09:23:58.320Z,57.1
2023-04-23T09:24:58.278Z,57.1
2023-04-23T09:25:58.304Z,57.1
2023-04-23T09:26:58.341Z,57.1
2023-04-23T09:27:58.385Z,57.1
2023-04-23T09:28:58.325Z,57.1
2023-04-23T09:29:58.324Z,57.1
2023-04-23T09:30:58.332Z,57.1
2023-04-23T09:31:58.546Z,57.1
2023-04-23T09:32:58.423Z,57.1
2023-04-23T09:33:58.362Z,57.1
2023-04-23T09:34:58.359Z,57.9
2023-04-23T09:35:58.363Z,57.9
2023-04-23T09:36:58.363Z,57.9
2023-04-23T09:37:58.405Z,57.9
2023-04-23T09:38:58.400Z,57.9
2023-04-23T09:39:58.313Z,57.9
2023-04-23T09:40:58.332Z,57.9
2023-04-23T09:41:58.372Z,57.9
2023-04-23T09:42:58.424Z,57.9
2023-04-23T09:43:58.367Z,57.9
2023-04-23T09:44:58.405Z,57.9
2023-04-23T09:45:58.443Z,57.9
2023-04-23T09:46:58.404Z,57.9
2023-04-23T09:47:58.461Z,57.9
2023-04-23T09:48:58.445Z,57.9
2023-04-23T09:49:58.343Z,54.8
2023-04-23T09:50:58.396Z,54.8
2023-04-23T09:51:58.459Z,54.8
2023-04-23T09:52:58.449Z,54.8
2023-04-23T09:53:58.412Z,48
2023-04-23T09:54:58.441Z,48
2023-04-23T09:55:58.448Z,48
2023-04-23T09:56:58.448Z,48
2023-04-23T09:57:58.371Z,48
2023-04-23T09:58:58.480Z,48
2023-04-23T10:00:07.348Z,48
2023-04-23T10:00:58.456Z,48
2023-04-23T10:01:58.455Z,48
2023-04-23T10:02:59.558Z,48
2023-04-23T10:03:58.580Z,48
2023-04-23T10:05:10.140Z,48
2023-04-23T10:06:01.759Z,48
2023-04-23T10:07:13.870Z,48
2023-04-23T10:07:58.499Z,47.4
2023-04-23T10:08:58.485Z,47.4
2023-04-23T10:09:58.474Z,47.4
2023-04-23T10:11:09.571Z,47.4
2023-04-23T10:11:58.512Z,47.4
2023-04-23T10:12:58.499Z,47.4
2023-04-23T10:13:58.441Z,47.4
2023-04-23T10:14:58.500Z,47.4
2023-04-23T10:16:07.131Z,47.4
2023-04-23T10:16:58.482Z,47.4
2023-04-23T10:17:58.505Z,47.4
2023-04-23T10:18:58.485Z,47.3
2023-04-23T10:19:58.447Z,47.3
2023-04-23T10:20:58.482Z,47.3
2023-04-23T10:22:08.560Z,47.3
2023-04-23T10:22:58.548Z,47.3
2023-04-23T10:23:58.455Z,47.3
2023-04-23T10:24:58.461Z,47.3
2023-04-23T10:25:58.506Z,40.6
2023-04-23T10:26:58.591Z,40.6
2023-04-23T10:27:58.503Z,40.6
2023-04-23T10:28:58.454Z,40.6
2023-04-23T10:29:58.499Z,40.6
2023-04-23T10:30:58.516Z,40.6
2023-04-23T10:31:58.500Z,40.6
2023-04-23T10:32:58.609Z,40.6
2023-04-23T10:33:59.526Z,40.6
2023-04-23T10:34:58.504Z,40.6
2023-04-23T10:35:58.491Z,40.6
2023-04-23T10:36:58.530Z,40.6
2023-04-23T10:37:58.449Z,40.6
2023-04-23T10:39:00.202Z,40.6
2023-04-23T10:39:58.492Z,40.6
2023-04-23T10:40:58.459Z,38.6
2023-04-23T10:41:58.520Z,38.6
2023-04-23T10:42:58.515Z,45.1
2023-04-23T10:43:58.612Z,45.1
2023-04-23T10:45:04.674Z,45.1
2023-04-23T10:45:58.459Z,45.1
2023-04-23T10:46:58.627Z,45.1
2023-04-23T10:47:58.526Z,45.1
2023-04-23T10:48:58.477Z,36.9
2023-04-23T10:49:58.554Z,36.9
2023-04-23T10:51:09.733Z,36.9
2023-04-23T10:52:18.896Z,36.9
2023-04-23T10:52:58.987Z,36.9
2023-04-23T10:53:58.466Z,43
2023-04-23T10:54:58.466Z,43
2023-04-23T10:55:58.511Z,43
2023-04-23T10:56:58.471Z,43
2023-04-23T10:58:00.621Z,43
2023-04-23T10:58:58.479Z,43
2023-04-23T10:59:58.469Z,43
2023-04-23T11:00:58.518Z,43
2023-04-23T11:01:58.569Z,43
2023-04-23T11:02:58.633Z,43
2023-04-23T11:03:58.743Z,43
2023-04-23T11:04:58.868Z,43
2023-04-23T11:05:58.522Z,43
2023-04-23T11:06:58.558Z,43
2023-04-23T11:08:00.353Z,43
2023-04-23T11:08:58.536Z,43
2023-04-23T11:09:58.480Z,43
2023-04-23T11:10:58.514Z,43
2023-04-23T11:11:58.591Z,43
2023-04-23T11:12:58.484Z,43
2023-04-23T11:14:00.689Z,43
2023-04-23T11:14:58.498Z,43
2023-04-23T11:15:58.594Z,43
2023-04-23T11:16:58.545Z,43
2023-04-23T11:17:58.533Z,43
2023-04-23T11:18:58.526Z,43
2023-04-23T11:19:58.524Z,43
2023-04-23T11:20:58.490Z,43
2023-04-23T11:21:58.536Z,43
2023-04-23T11:22:58.581Z,43
2023-04-23T11:23:58.590Z,43
2023-04-23T11:24:58.523Z,43
2023-04-23T11:25:58.545Z,43
2023-04-23T11:26:58.563Z,43
2023-04-23T11:27:58.655Z,43
2023-04-23T11:28:58.530Z,43
2023-04-23T11:30:00.098Z,43
2023-04-23T11:30:58.529Z,43
2023-04-23T11:32:03.186Z,43
2023-04-23T11:32:58.653Z,43
2023-04-23T11:33:58.568Z,43
2023-04-23T11:34:58.538Z,43
2023-04-23T11:35:58.568Z,43
2023-04-23T11:36:58.537Z,43
2023-04-23T11:37:58.584Z,43
2023-04-23T11:38:58.579Z,43
2023-04-23T11:39:58.581Z,42.1
2023-04-23T11:40:58.582Z,42.1
2023-04-23T11:41:58.540Z,42.1
2023-04-23T11:42:58.573Z,42.1
2023-04-23T11:43:58.617Z,42.1
2023-04-23T11:44:58.690Z,42.1
2023-04-23T11:45:58.587Z,42.1
2023-04-23T11:46:58.634Z,42.1
2023-04-23T11:47:58.750Z,42.1
2023-04-23T11:48:58.602Z,42.1
2023-04-23T11:49:58.540Z,42.1
2023-04-23T11:50:58.535Z,42.1
2023-04-23T11:51:58.529Z,42.1
2023-04-23T11:52:58.571Z,42.1
2023-04-23T11:53:58.544Z,42.1
2023-04-23T11:54:58.578Z,42.1
2023-04-23T11:55:58.541Z,42.1
2023-04-23T11:56:58.586Z,42.1
2023-04-23T11:57:58.545Z,43.3
2023-04-23T11:58:58.578Z,43.3
2023-04-23T11:59:58.587Z,43.3
2023-04-23T12:00:58.523Z,43.3
2023-04-23T12:01:58.667Z,43.3
2023-04-23T12:02:58.647Z,43.3
2023-04-23T12:03:58.767Z,43.3
2023-04-23T12:04:58.591Z,43.3
2023-04-23T12:05:58.567Z,43.3
2023-04-23T12:06:58.584Z,43.3
2023-04-23T12:07:58.569Z,43.3
2023-04-23T12:08:58.578Z,43.3
2023-04-23T12:09:58.531Z,43.3
2023-04-23T12:10:58.571Z,43.3
2023-04-23T12:11:58.832Z,43.3
2023-04-23T12:12:58.539Z,43.3
2023-04-23T12:13:58.544Z,43.3
2023-04-23T12:14:58.594Z,43.3
2023-04-23T12:15:58.626Z,43.3
2023-04-23T12:16:58.548Z,43.3
2023-04-23T12:17:58.636Z,43.3
2023-04-23T12:18:58.627Z,43.3
2023-04-23T12:19:58.551Z,43.3
2023-04-23T12:20:58.546Z,43.3
2023-04-23T12:21:58.551Z,43.3
2023-04-23T12:22:58.601Z,43.3
2023-04-23T12:23:58.524Z,43.3
2023-04-23T12:24:58.597Z,43.3
2023-04-23T12:25:58.604Z,43.3
2023-04-23T12:26:58.638Z,43.4
2023-04-23T12:27:58.545Z,43.4
2023-04-23T12:28:58.550Z,43.4
2023-04-23T12:29:58.549Z,43.4
2023-04-23T12:30:58.675Z,43.4
2023-04-23T12:31:58.562Z,43.4
2023-04-23T12:32:58.597Z,43.4
2023-04-23T12:33:58.548Z,43.4
2023-04-23T12:34:58.695Z,41.5
2023-04-23T12:35:58.610Z,41.5
2023-04-23T12:36:58.596Z,41.5
2023-04-23T12:37:58.664Z,41.5
2023-04-23T12:38:58.572Z,41.5
2023-04-23T12:39:58.570Z,41.5
2023-04-23T12:40:58.584Z,41.5
2023-04-23T12:41:58.590Z,41.5
2023-04-23T12:42:58.543Z,41.5
2023-04-23T12:43:58.554Z,41.5
2023-04-23T12:44:58.607Z,41.5
2023-04-23T12:45:58.605Z,41.5
2023-04-23T12:46:58.668Z,41.5
2023-04-23T12:47:58.582Z,41.5
2023-04-23T12:48:58.620Z,41.5
2023-04-23T12:49:58.590Z,41.5
2023-04-23T12:50:58.574Z,41.5
2023-04-23T12:51:58.618Z,41.5
2023-04-23T12:52:58.604Z,41.5
2023-04-23T12:53:58.605Z,41.5
2023-04-23T12:54:58.585Z,41.5
2023-04-23T12:55:58.606Z,41.5
2023-04-23T12:56:58.589Z,41.5
2023-04-23T12:57:58.647Z,41.5
2023-04-23T12:58:58.612Z,41.5
2023-04-23T12:59:58.640Z,41.5
2023-04-23T13:00:58.669Z,41.5
2023-04-23T13:01:58.639Z,41.5
2023-04-23T13:02:58.668Z,41.5
2023-04-23T13:03:58.689Z,41.5
2023-04-23T13:04:58.600Z,41.5
2023-04-23T13:05:58.652Z,41.5
2023-04-23T13:06:58.626Z,41.5
2023-04-23T13:07:58.601Z,41.5
2023-04-23T13:08:58.638Z,41.5
2023-04-23T13:09:58.618Z,41.5
2023-04-23T13:10:58.631Z,41.5
2023-04-23T13:11:58.579Z,41.5
2023-04-23T13:12:58.586Z,37.8
2023-04-23T13:13:58.632Z,37.8
2023-04-23T13:14:58.623Z,37.8
2023-04-23T13:15:58.699Z,37.8
2023-04-23T13:16:58.623Z,37.8
2023-04-23T13:17:58.690Z,37.8
2023-04-23T13:18:58.624Z,37.8
2023-04-23T13:19:58.639Z,37.8
2023-04-23T13:20:58.618Z,37.8
2023-04-23T13:21:58.679Z,37.8
2023-04-23T13:22:58.592Z,37.8
2023-04-23T13:23:58.625Z,37.8
2023-04-23T13:24:58.659Z,37.8
2023-04-23T13:25:58.639Z,37.8
2023-04-23T13:26:58.608Z,37.8
2023-04-23T13:27:58.614Z,37.8
2023-04-23T13:28:58.612Z,37.8
2023-04-23T13:29:58.611Z,37.8